Time;durP1;ratioP1;P1;durP2;ratioP2;P2;SDS_P1;SDS_P2;PMS_P1;PMS_P2;Temp;Humidity;BMP_temperature;BMP_pressure;BME280_temperature;BME280_humidity;BME280_pressure;Samples;Min_cycle;Max_cycle;Signal;HPM_P1;HPM_P2
2020/12/30 00:00:20;;;;;;;;;;;7.20;84.80;;;;;;5096990;28;19924;-71
2020/12/30 00:02:47;;;;;;;;;;;7.20;85.20;;;;;;5096702;28;19923;-71
2020/12/30 00:05:13;;;;;;;;;;;7.10;84.10;;;;;;5097205;28;19970;-69
2020/12/30 00:07:39;;;;;;;;;;;7.10;85.00;;;;;;5097023;28;19935;-70
2020/12/30 00:10:07;;;;;;;;;;;7.00;85.10;;;;;;5096962;28;20374;-64
2020/12/30 00:12:34;;;;;;;;;;;7.10;84.70;;;;;;5096399;28;20368;-70
2020/12/30 00:15:00;;;;;;;;;;;7.10;85.90;;;;;;5096563;28;19935;-70
2020/12/30 00:17:27;;;;;;;;;;;7.10;85.10;;;;;;5096688;28;19924;-70
2020/12/30 00:19:53;;;;;;;;;;;7.10;85.60;;;;;;5096602;28;19931;-69
2020/12/30 00:22:20;;;;;;;;;;;7.10;84.60;;;;;;5096823;28;19924;-70
2020/12/30 00:24:46;;;;;;;;;;;7.00;84.50;;;;;;5097065;28;20266;-70
2020/12/30 00:27:13;;;;;;;;;;;7.00;84.60;;;;;;5109126;28;19931;-68
2020/12/30 00:29:39;;;;;;;;;;;7.10;85.00;;;;;;5116980;28;19924;-70
2020/12/30 00:32:10;;;;;;;;;;;7.20;85.20;;;;;;5113111;28;19924;-69
2020/12/30 00:34:37;;;;;;;;;;;7.10;84.50;;;;;;5096439;28;19924;-68
2020/12/30 00:37:04;;;;;;;;;;;6.90;87.00;;;;;;5099773;28;19923;-72
2020/12/30 00:39:30;;;;;;;;;;;6.80;87.60;;;;;;5116821;28;19981;-72
2020/12/30 00:41:56;;;;;;;;;;;7.00;87.50;;;;;;5105187;28;20002;-70
2020/12/30 00:44:23;;;;;;;;;;;6.80;87.20;;;;;;5096179;28;19931;-64
2020/12/30 00:46:50;;;;;;;;;;;6.80;88.40;;;;;;5078651;28;19949;-69
2020/12/30 00:49:17;;;;;;;;;;;6.80;88.60;;;;;;5096136;28;19928;-71
2020/12/30 00:51:47;;;;;;;;;;;6.70;89.50;;;;;;5088557;28;19924;-67
2020/12/30 00:54:13;;;;;;;;;;;6.70;88.70;;;;;;5096729;28;19928;-70
2020/12/30 00:56:40;;;;;;;;;;;6.90;88.20;;;;;;5078310;28;19924;-70
2020/12/30 00:59:06;;;;;;;;;;;6.80;88.20;;;;;;5096315;28;19931;-65
2020/12/30 01:01:32;;;;;;;;;;;6.90;88.50;;;;;;5096366;28;19924;-69
2020/12/30 01:03:58;;;;;;;;;;;6.60;88.50;;;;;;5078115;28;19924;-70
2020/12/30 01:06:24;;;;;;;;;;;6.70;89.00;;;;;;5096259;28;19928;-69
2020/12/30 01:08:51;;;;;;;;;;;6.60;89.40;;;;;;5092586;28;19949;-69
2020/12/30 01:11:24;;;;;;;;;;;6.60;88.70;;;;;;5093485;28;20194;-72
2020/12/30 01:13:50;;;;;;;;;;;6.70;88.30;;;;;;5093082;28;20434;-68
2020/12/30 01:16:16;;;;;;;;;;;6.80;88.10;;;;;;5092658;28;19951;-72
2020/12/30 01:18:43;;;;;;;;;;;6.90;88.50;;;;;;5092830;28;19928;-68
2020/12/30 01:21:09;;;;;;;;;;;6.90;87.70;;;;;;5092539;28;19924;-70
2020/12/30 01:23:36;;;;;;;;;;;7.00;87.20;;;;;;5092462;28;19928;-70
2020/12/30 01:26:02;;;;;;;;;;;6.80;87.60;;;;;;5095874;28;19924;-70
2020/12/30 01:28:28;;;;;;;;;;;6.80;88.00;;;;;;5112683;28;19924;-70
2020/12/30 01:30:54;;;;;;;;;;;6.80;88.40;;;;;;5112671;28;19931;-67
2020/12/30 01:33:21;;;;;;;;;;;6.70;88.10;;;;;;5098250;28;19978;-69
2020/12/30 01:35:47;;;;;;;;;;;6.90;87.10;;;;;;5092286;28;20395;-69
2020/12/30 01:38:13;;;;;;;;;;;6.80;88.10;;;;;;5105608;28;19953;-70
2020/12/30 01:40:39;;;;;;;;;;;6.80;87.60;;;;;;5112198;28;20525;-70
2020/12/30 01:43:06;;;;;;;;;;;6.80;87.10;;;;;;5092476;28;19924;-71
2020/12/30 01:45:32;;;;;;;;;;;6.90;86.80;;;;;;5092421;28;19924;-69
2020/12/30 01:48:02;;;;;;;;;;;7.00;86.90;;;;;;5092568;28;19931;-70
2020/12/30 01:50:28;;;;;;;;;;;6.90;86.20;;;;;;5092081;28;20221;-72
2020/12/30 01:52:58;;;;;;;;;;;7.00;86.30;;;;;;5091921;28;19977;-73
2020/12/30 01:55:25;;;;;;;;;;;6.90;87.00;;;;;;5092111;28;19955;-72
2020/12/30 01:57:51;;;;;;;;;;;6.90;86.60;;;;;;5092012;28;19928;-72
2020/12/30 02:00:18;;;;;;;;;;;6.80;86.50;;;;;;5092201;28;19924;-72
2020/12/30 02:02:46;;;;;;;;;;;6.80;86.60;;;;;;5091915;28;19932;-68
2020/12/30 02:05:12;;;;;;;;;;;6.70;87.40;;;;;;5092051;28;19924;-71
2020/12/30 02:07:38;;;;;;;;;;;6.60;88.70;;;;;;5091969;28;19924;-72
2020/12/30 02:10:05;;;;;;;;;;;6.60;88.60;;;;;;5091740;28;19923;-70
2020/12/30 02:12:31;;;;;;;;;;;6.70;88.00;;;;;;5091968;28;19928;-72
2020/12/30 02:14:57;;;;;;;;;;;6.70;87.10;;;;;;5091585;28;20312;-71
2020/12/30 02:17:24;;;;;;;;;;;6.80;87.10;;;;;;5109211;28;19923;-72
2020/12/30 02:19:50;;;;;;;;;;;6.80;87.10;;;;;;5110925;28;19924;-72
2020/12/30 02:22:29;;;;;;;;;;;6.70;86.70;;;;;;5111763;28;19924;-71
2020/12/30 02:24:55;;;;;;;;;;;6.80;85.90;;;;;;5111640;28;20375;-71
2020/12/30 02:27:21;;;;;;;;;;;6.90;85.40;;;;;;5097643;28;19927;-72
2020/12/30 02:29:47;;;;;;;;;;;6.80;85.40;;;;;;5091170;28;19930;-72
2020/12/30 02:32:13;;;;;;;;;;;6.80;83.80;;;;;;5095255;28;19931;-69
2020/12/30 02:34:40;;;;;;;;;;;6.70;84.90;;;;;;5073015;28;19931;-72
2020/12/30 02:37:07;;;;;;;;;;;6.70;84.00;;;;;;5094996;28;19927;-69
2020/12/30 02:39:33;;;;;;;;;;;6.70;83.50;;;;;;5111702;28;19928;-69
2020/12/30 02:41:59;;;;;;;;;;;6.70;83.40;;;;;;5099410;28;19942;-72
2020/12/30 02:44:25;;;;;;;;;;;6.70;81.80;;;;;;5091064;28;20242;-72
2020/12/30 02:46:52;;;;;;;;;;;6.70;81.20;;;;;;5090841;28;19931;-72
2020/12/30 02:49:18;;;;;;;;;;;6.70;81.10;;;;;;5091114;28;20273;-71
2020/12/30 02:51:44;;;;;;;;;;;6.60;81.60;;;;;;5091028;28;19924;-72
2020/12/30 02:54:11;;;;;;;;;;;6.50;82.30;;;;;;5090896;28;19924;-67
2020/12/30 02:56:37;;;;;;;;;;;6.50;82.20;;;;;;5090987;28;19924;-73
2020/12/30 02:59:03;;;;;;;;;;;6.40;83.40;;;;;;5090841;28;19931;-74
2020/12/30 03:01:30;;;;;;;;;;;6.50;83.30;;;;;;5090861;28;19928;-71
2020/12/30 03:03:56;;;;;;;;;;;6.50;83.50;;;;;;5090911;28;19931;-71
2020/12/30 03:06:23;;;;;;;;;;;6.70;83.70;;;;;;5090753;28;19927;-71
2020/12/30 03:08:49;;;;;;;;;;;6.70;82.40;;;;;;5090844;28;20323;-71
2020/12/30 03:11:15;;;;;;;;;;;6.80;82.80;;;;;;5090697;28;19931;-71
2020/12/30 03:13:42;;;;;;;;;;;6.70;82.90;;;;;;5091073;28;19924;-68
2020/12/30 03:16:08;;;;;;;;;;;6.60;84.40;;;;;;5097386;28;19931;-69
2020/12/30 03:18:36;;;;;;;;;;;6.70;83.10;;;;;;5110911;28;19930;-69
2020/12/30 03:21:02;;;;;;;;;;;6.70;84.50;;;;;;5111114;28;19924;-69
2020/12/30 03:23:28;;;;;;;;;;;6.60;84.90;;;;;;5111220;28;19949;-69
2020/12/30 03:25:54;;;;;;;;;;;6.90;84.40;;;;;;5109164;28;20326;-69
2020/12/30 03:28:21;;;;;;;;;;;6.90;83.40;;;;;;5091230;28;19925;-73
2020/12/30 03:30:47;;;;;;;;;;;6.80;83.90;;;;;;5090682;28;20289;-71
2020/12/30 03:33:13;;;;;;;;;;;6.70;84.70;;;;;;5095458;28;19924;-72
2020/12/30 03:35:39;;;;;;;;;;;6.70;84.90;;;;;;5091279;28;20004;-72
2020/12/30 03:38:06;;;;;;;;;;;6.80;83.60;;;;;;5102001;28;19930;-69
2020/12/30 03:40:32;;;;;;;;;;;6.80;84.20;;;;;;5110439;28;20289;-71
2020/12/30 03:42:58;;;;;;;;;;;6.90;83.70;;;;;;5090493;28;19928;-69
2020/12/30 03:45:25;;;;;;;;;;;6.80;84.00;;;;;;5089955;28;19932;-69
2020/12/30 03:47:51;;;;;;;;;;;6.60;84.70;;;;;;5089970;28;19928;-67
2020/12/30 03:50:17;;;;;;;;;;;6.60;85.30;;;;;;5090208;28;19931;-70
2020/12/30 03:52:43;;;;;;;;;;;6.70;86.10;;;;;;5089774;28;20380;-69
2020/12/30 03:55:10;;;;;;;;;;;6.70;85.40;;;;;;5090001;28;19924;-66
2020/12/30 03:57:36;;;;;;;;;;;6.70;84.90;;;;;;5089862;28;19924;-68
2020/12/30 04:00:03;;;;;;;;;;;6.70;84.90;;;;;;5090299;28;20227;-68
2020/12/30 04:02:29;;;;;;;;;;;6.60;84.60;;;;;;5089956;28;19931;-69
2020/12/30 04:04:55;;;;;;;;;;;6.60;84.80;;;;;;5089993;28;19924;-69
2020/12/30 04:07:21;;;;;;;;;;;6.70;84.00;;;;;;5090027;28;19924;-69
2020/12/30 04:09:48;;;;;;;;;;;6.80;83.40;;;;;;5090048;28;19943;-69
2020/12/30 04:12:14;;;;;;;;;;;6.60;84.00;;;;;;5090637;28;20016;-70
2020/12/30 04:14:40;;;;;;;;;;;6.70;84.00;;;;;;5090659;28;19928;-70
2020/12/30 04:17:06;;;;;;;;;;;6.80;84.30;;;;;;5106469;28;19927;-69
2020/12/30 04:19:33;;;;;;;;;;;6.60;83.70;;;;;;5112318;28;19923;-69
2020/12/30 04:21:59;;;;;;;;;;;6.70;83.40;;;;;;5113111;28;19923;-69
2020/12/30 04:24:25;;;;;;;;;;;6.50;84.30;;;;;;5095625;28;19923;-69
2020/12/30 04:26:52;;;;;;;;;;;6.50;84.50;;;;;;5104505;28;20393;-67
2020/12/30 04:29:18;;;;;;;;;;;6.40;85.50;;;;;;5094191;28;19931;-69
2020/12/30 04:31:44;;;;;;;;;;;6.50;84.80;;;;;;5091502;28;19931;-72
2020/12/30 04:34:10;;;;;;;;;;;6.50;84.70;;;;;;5110155;28;19928;-72
2020/12/30 04:36:37;;;;;;;;;;;6.40;85.10;;;;;;5110277;28;19924;-70
2020/12/30 04:39:03;;;;;;;;;;;6.40;84.70;;;;;;5090026;28;19924;-71
2020/12/30 04:41:35;;;;;;;;;;;6.20;85.30;;;;;;5089432;28;19924;-71
2020/12/30 04:44:02;;;;;;;;;;;6.20;85.60;;;;;;5092318;28;19947;-71
2020/12/30 04:46:28;;;;;;;;;;;6.30;85.90;;;;;;5093612;28;19928;-72
2020/12/30 04:48:58;;;;;;;;;;;6.40;84.30;;;;;;5083342;28;19925;-72
2020/12/30 04:51:26;;;;;;;;;;;6.50;83.90;;;;;;5072605;28;19924;-71
2020/12/30 04:53:57;;;;;;;;;;;6.50;83.90;;;;;;5072886;28;19931;-71
2020/12/30 04:56:41;;;;;;;;;;;6.50;84.40;;;;;;5073213;28;19924;-71
2020/12/30 04:59:11;;;;;;;;;;;6.50;84.00;;;;;;5073093;28;19928;-72
2020/12/30 05:01:42;;;;;;;;;;;6.50;83.10;;;;;;5072676;28;20321;-69
2020/12/30 05:04:11;;;;;;;;;;;6.40;83.20;;;;;;5072987;28;19924;-67
2020/12/30 05:06:39;;;;;;;;;;;6.40;84.20;;;;;;5072898;28;19926;-71
2020/12/30 05:09:05;;;;;;;;;;;6.40;84.70;;;;;;5072883;28;19932;-69
2020/12/30 05:11:32;;;;;;;;;;;6.40;84.60;;;;;;5072939;28;19928;-72
2020/12/30 05:13:58;;;;;;;;;;;6.40;83.60;;;;;;5072509;28;19931;-71
2020/12/30 05:16:28;;;;;;;;;;;6.40;82.80;;;;;;5072481;28;19925;-71
2020/12/30 05:19:06;;;;;;;;;;;6.30;82.70;;;;;;5072217;28;19925;-72
2020/12/30 05:21:33;;;;;;;;;;;6.30;83.00;;;;;;5072505;28;20289;-69
2020/12/30 05:23:59;;;;;;;;;;;6.20;83.60;;;;;;5072309;28;19924;-70
2020/12/30 05:26:27;;;;;;;;;;;6.20;83.20;;;;;;5078426;28;20403;-71
2020/12/30 05:28:53;;;;;;;;;;;6.30;83.30;;;;;;5092490;28;19924;-71
2020/12/30 05:31:19;;;;;;;;;;;6.20;83.50;;;;;;5092413;28;19928;-71
2020/12/30 05:33:46;;;;;;;;;;;6.10;83.90;;;;;;5057045;28;19928;-71
2020/12/30 05:36:13;;;;;;;;;;;6.20;82.90;;;;;;5072408;28;20430;-71
2020/12/30 05:38:39;;;;;;;;;;;6.20;83.10;;;;;;5088797;28;19989;-71
2020/12/30 05:41:16;;;;;;;;;;;6.10;83.30;;;;;;5088194;28;19925;-72
2020/12/30 05:43:42;;;;;;;;;;;6.00;83.50;;;;;;5072526;28;19935;-72
2020/12/30 05:46:09;;;;;;;;;;;6.00;83.20;;;;;;5072250;28;19947;-68
2020/12/30 05:48:35;;;;;;;;;;;6.00;82.70;;;;;;5079329;28;19930;-72
2020/12/30 05:51:01;;;;;;;;;;;5.90;82.70;;;;;;5092475;28;19946;-71
2020/12/30 05:53:27;;;;;;;;;;;5.80;83.00;;;;;;5092112;28;19928;-72
2020/12/30 05:56:12;;;;;;;;;;;5.80;83.10;;;;;;5092082;28;19924;-72
2020/12/30 05:58:42;;;;;;;;;;;5.80;83.20;;;;;;5092154;28;19924;-68
2020/12/30 06:01:22;;;;;;;;;;;5.60;84.50;;;;;;5092142;28;19946;-71
2020/12/30 06:03:49;;;;;;;;;;;5.50;85.80;;;;;;5091941;28;19928;-72
2020/12/30 06:06:19;;;;;;;;;;;5.50;84.90;;;;;;5091756;28;19931;-70
2020/12/30 06:08:47;;;;;;;;;;;5.50;85.10;;;;;;5091914;28;19954;-71
2020/12/30 06:11:15;;;;;;;;;;;5.50;85.00;;;;;;5091559;28;19963;-73
2020/12/30 06:13:42;;;;;;;;;;;5.50;85.10;;;;;;5091997;28;19970;-71
2020/12/30 06:16:09;;;;;;;;;;;5.60;84.10;;;;;;5105869;27;19924;-70
2020/12/30 06:18:36;;;;;;;;;;;5.70;83.40;;;;;;5133032;27;19924;-72
2020/12/30 06:21:03;;;;;;;;;;;5.80;83.00;;;;;;5132628;27;19930;-71
2020/12/30 06:23:34;;;;;;;;;;;5.70;82.90;;;;;;5132350;27;19975;-71
2020/12/30 06:26:03;;;;;;;;;;;5.50;83.40;;;;;;5126855;27;19939;-71
2020/12/30 06:28:31;;;;;;;;;;;5.40;82.70;;;;;;5091476;28;19927;-71
2020/12/30 06:31:01;;;;;;;;;;;5.40;84.80;;;;;;5091623;28;19924;-69
2020/12/30 06:33:27;;;;;;;;;;;5.30;83.20;;;;;;5078665;28;19924;-68
2020/12/30 06:35:56;;;;;;;;;;;5.10;84.50;;;;;;5091398;28;20406;-71
2020/12/30 06:38:23;;;;;;;;;;;5.20;84.50;;;;;;5090978;28;19928;-71
2020/12/30 06:40:54;;;;;;;;;;;5.20;83.90;;;;;;5093361;28;20532;-71
2020/12/30 06:43:54;;;;;;;;;;;5.30;83.80;;;;;;5111438;28;19923;-71
2020/12/30 06:46:23;;;;;;;;;;;5.30;83.20;;;;;;5093449;28;19928;-71
2020/12/30 06:48:57;;;;;;;;;;;5.40;84.00;;;;;;5111474;28;19931;-72
2020/12/30 06:51:28;;;;;;;;;;;5.40;83.10;;;;;;5103257;28;20014;-72
2020/12/30 06:53:54;;;;;;;;;;;5.50;82.80;;;;;;5091375;28;20057;-74
2020/12/30 06:56:39;;;;;;;;;;;5.40;82.00;;;;;;5107085;28;19931;-72
2020/12/30 06:59:06;;;;;;;;;;;5.40;82.80;;;;;;5111075;28;20407;-67
2020/12/30 07:02:02;;;;;;;;;;;5.40;82.10;;;;;;5111424;28;19993;-71
2020/12/30 07:04:32;;;;;;;;;;;5.50;82.30;;;;;;5093584;28;19931;-72
2020/12/30 07:06:58;;;;;;;;;;;5.50;82.90;;;;;;5110668;28;19931;-69
2020/12/30 07:09:27;;;;;;;;;;;5.30;82.80;;;;;;5110783;28;19938;-71
2020/12/30 07:11:55;;;;;;;;;;;5.30;84.30;;;;;;5111194;28;19930;-71
2020/12/30 07:14:25;;;;;;;;;;;5.20;83.80;;;;;;5111055;28;20319;-72
2020/12/30 07:16:56;;;;;;;;;;;5.10;84.00;;;;;;5098385;28;19931;-71
2020/12/30 07:19:23;;;;;;;;;;;5.10;84.60;;;;;;5090592;28;20416;-68
2020/12/30 07:21:51;;;;;;;;;;;5.20;83.90;;;;;;5090382;28;19924;-72
2020/12/30 07:24:18;;;;;;;;;;;5.30;83.20;;;;;;5090363;28;19925;-71
2020/12/30 07:26:46;;;;;;;;;;;5.30;83.60;;;;;;5099237;28;20549;-72
2020/12/30 07:29:13;;;;;;;;;;;5.40;83.40;;;;;;5111079;28;19931;-71
2020/12/30 07:31:39;;;;;;;;;;;5.40;82.80;;;;;;5110965;28;20372;-72
2020/12/30 07:34:13;;;;;;;;;;;5.40;83.60;;;;;;5106285;28;19930;-72
2020/12/30 07:36:39;;;;;;;;;;;5.40;83.30;;;;;;5110767;28;19969;-71
2020/12/30 07:39:06;;;;;;;;;;;5.50;83.40;;;;;;5090364;28;19924;-70
2020/12/30 07:41:34;;;;;;;;;;;5.40;83.00;;;;;;5098196;28;19923;-72
2020/12/30 07:44:02;;;;;;;;;;;5.50;83.40;;;;;;5110634;28;19969;-71
2020/12/30 07:46:29;;;;;;;;;;;5.50;83.20;;;;;;5110505;28;19924;-71
2020/12/30 07:49:08;;;;;;;;;;;5.50;83.30;;;;;;5110228;28;19931;-70
2020/12/30 07:51:34;;;;;;;;;;;5.50;82.80;;;;;;5100596;28;20364;-72
2020/12/30 07:54:01;;;;;;;;;;;5.60;83.60;;;;;;5090019;28;19924;-71
2020/12/30 07:56:27;;;;;;;;;;;5.60;83.80;;;;;;5088751;28;20417;-70
2020/12/30 07:58:53;;;;;;;;;;;5.50;84.20;;;;;;5110148;28;19923;-71
2020/12/30 08:01:20;;;;;;;;;;;5.70;84.80;;;;;;5110219;28;19924;-71
2020/12/30 08:03:46;;;;;;;;;;;5.70;84.40;;;;;;5110650;28;19924;-72
2020/12/30 08:06:17;;;;;;;;;;;5.70;83.30;;;;;;5110441;28;20269;-71
2020/12/30 08:08:44;;;;;;;;;;;5.80;81.80;;;;;;5110184;28;19970;-72
2020/12/30 08:11:11;;;;;;;;;;;5.70;81.90;;;;;;5110306;28;19975;-67
2020/12/30 08:13:41;;;;;;;;;;;5.80;82.40;;;;;;5109949;28;19934;-71
2020/12/30 08:16:10;;;;;;;;;;;5.70;83.00;;;;;;5103218;28;20300;-71
2020/12/30 08:18:36;;;;;;;;;;;5.80;83.20;;;;;;5093993;28;19924;-72
2020/12/30 08:21:09;;;;;;;;;;;5.90;82.30;;;;;;5093992;28;19924;-71
2020/12/30 08:23:35;;;;;;;;;;;5.80;81.70;;;;;;5093938;28;20117;-72
2020/12/30 08:26:03;;;;;;;;;;;5.70;81.70;;;;;;5096654;28;19943;-70
2020/12/30 08:28:31;;;;;;;;;;;5.80;81.60;;;;;;5114376;28;19928;-70
2020/12/30 08:30:59;;;;;;;;;;;5.80;81.90;;;;;;5114023;28;20379;-73
2020/12/30 08:33:25;;;;;;;;;;;5.90;81.40;;;;;;5099166;28;20292;-69
2020/12/30 08:35:56;;;;;;;;;;;5.80;81.40;;;;;;5093786;28;19932;-71
2020/12/30 08:38:24;;;;;;;;;;;5.80;82.30;;;;;;5107906;28;19931;-72
2020/12/30 08:40:52;;;;;;;;;;;5.90;82.30;;;;;;5111776;28;19927;-71
2020/12/30 08:43:26;;;;;;;;;;;5.90;82.00;;;;;;5093342;28;19957;-71
2020/12/30 08:45:53;;;;;;;;;;;6.00;81.00;;;;;;5093520;28;19931;-74
2020/12/30 08:48:21;;;;;;;;;;;6.00;81.60;;;;;;5093102;28;19935;-72
2020/12/30 08:50:48;;;;;;;;;;;6.10;80.70;;;;;;5093169;28;20404;-72
2020/12/30 08:53:14;;;;;;;;;;;6.10;81.00;;;;;;5093160;28;19930;-72
2020/12/30 08:55:40;;;;;;;;;;;6.20;81.60;;;;;;5093381;28;19931;-71
2020/12/30 08:58:07;;;;;;;;;;;6.20;80.80;;;;;;5093221;28;20334;-71
2020/12/30 09:00:35;;;;;;;;;;;6.20;79.90;;;;;;5093217;28;19932;-71
2020/12/30 09:03:12;;;;;;;;;;;6.30;80.00;;;;;;5093166;28;19930;-71
2020/12/30 09:05:38;;;;;;;;;;;6.30;79.60;;;;;;5092753;28;20376;-71
2020/12/30 09:08:11;;;;;;;;;;;6.20;80.80;;;;;;5093328;28;19935;-72
2020/12/30 09:10:37;;;;;;;;;;;6.00;81.10;;;;;;5092950;28;19931;-68
2020/12/30 09:13:18;;;;;;;;;;;5.90;81.00;;;;;;5092824;28;19948;-72
2020/12/30 09:15:46;;;;;;;;;;;6.00;80.70;;;;;;5093218;28;19978;-71
2020/12/30 09:18:12;;;;;;;;;;;6.20;81.70;;;;;;5093078;28;19924;-72
2020/12/30 09:20:39;;;;;;;;;;;6.40;79.20;;;;;;5093068;28;20277;-72
2020/12/30 09:23:06;;;;;;;;;;;6.30;79.70;;;;;;5092488;28;19970;-69
2020/12/30 09:25:33;;;;;;;;;;;6.40;79.60;;;;;;5074722;28;20320;-68
2020/12/30 09:27:59;;;;;;;;;;;6.40;79.90;;;;;;5112119;28;19935;-69
2020/12/30 09:30:27;;;;;;;;;;;6.80;79.50;;;;;;5112383;28;19923;-68
2020/12/30 09:32:54;;;;;;;;;;;7.00;78.30;;;;;;5084313;28;19924;-72
2020/12/30 09:35:29;;;;;;;;;;;7.30;77.00;;;;;;5092362;28;19928;-71
2020/12/30 09:37:59;;;;;;;;;;;7.40;76.10;;;;;;5111553;28;19924;-72
2020/12/30 09:40:26;;;;;;;;;;;7.30;76.10;;;;;;5112575;28;19928;-72
2020/12/30 09:42:52;;;;;;;;;;;7.40;75.70;;;;;;5093577;28;20318;-71
2020/12/30 09:45:20;;;;;;;;;;;7.40;75.70;;;;;;5092135;28;20357;-69
2020/12/30 09:47:46;;;;;;;;;;;7.00;76.40;;;;;;5092147;28;19924;-70
2020/12/30 09:50:17;;;;;;;;;;;7.00;76.90;;;;;;5091993;28;20384;-69
2020/12/30 09:52:46;;;;;;;;;;;7.00;78.30;;;;;;5092104;28;19964;-70
2020/12/30 09:55:12;;;;;;;;;;;7.00;77.40;;;;;;5091884;28;19925;-69
2020/12/30 09:57:39;;;;;;;;;;;7.20;76.70;;;;;;5091847;28;19951;-71
2020/12/30 10:00:09;;;;;;;;;;;7.20;76.20;;;;;;5091681;28;19924;-72
2020/12/30 10:02:35;;;;;;;;;;;7.30;76.30;;;;;;5091673;28;20319;-72
2020/12/30 10:05:02;;;;;;;;;;;7.50;74.90;;;;;;5091738;28;19931;-73
2020/12/30 10:07:29;;;;;;;;;;;7.30;74.70;;;;;;5091669;28;19983;-72
2020/12/30 10:09:56;;;;;;;;;;;7.30;75.80;;;;;;5073478;28;19928;-72
2020/12/30 10:12:22;;;;;;;;;;;7.40;76.10;;;;;;5091612;28;19928;-72
2020/12/30 10:14:49;;;;;;;;;;;7.40;75.10;;;;;;5091736;28;19924;-68
2020/12/30 10:17:15;;;;;;;;;;;7.50;75.20;;;;;;5091633;28;19924;-70
2020/12/30 10:19:41;;;;;;;;;;;7.30;75.00;;;;;;5091709;28;19924;-72
2020/12/30 10:22:08;;;;;;;;;;;7.40;76.60;;;;;;5091754;28;19924;-72
2020/12/30 10:24:35;;;;;;;;;;;7.40;75.90;;;;;;5091254;28;19924;-68
2020/12/30 10:27:02;;;;;;;;;;;7.50;76.20;;;;;;5102559;28;19984;-73
2020/12/30 10:29:30;;;;;;;;;;;7.60;74.20;;;;;;5111714;28;19927;-72
2020/12/30 10:31:57;;;;;;;;;;;7.60;75.60;;;;;;5109605;28;19939;-72
2020/12/30 10:34:24;;;;;;;;;;;7.50;76.20;;;;;;5091223;28;19977;-72
2020/12/30 10:36:50;;;;;;;;;;;7.40;75.20;;;;;;5092583;28;20175;-72
2020/12/30 10:39:16;;;;;;;;;;;7.60;76.60;;;;;;5111469;28;19923;-72
2020/12/30 10:41:42;;;;;;;;;;;7.70;74.60;;;;;;5101502;28;19924;-71
2020/12/30 10:44:09;;;;;;;;;;;7.70;74.20;;;;;;5090789;28;20376;-72
2020/12/30 10:46:37;;;;;;;;;;;8.00;75.00;;;;;;5091208;28;19953;-72
2020/12/30 10:49:03;;;;;;;;;;;8.00;75.10;;;;;;5090742;28;20406;-72
2020/12/30 10:51:29;;;;;;;;;;;8.00;75.30;;;;;;5090647;28;19997;-72
2020/12/30 10:53:56;;;;;;;;;;;8.00;73.30;;;;;;5090864;28;20265;-72
2020/12/30 10:56:22;;;;;;;;;;;8.10;72.20;;;;;;5090810;28;19931;-72
2020/12/30 10:58:49;;;;;;;;;;;8.10;71.80;;;;;;5090632;28;19969;-69
2020/12/30 11:01:15;;;;;;;;;;;8.10;72.90;;;;;;5072934;28;19924;-71
2020/12/30 11:03:42;;;;;;;;;;;8.20;72.30;;;;;;5090757;28;19935;-72
2020/12/30 11:06:09;;;;;;;;;;;8.20;71.90;;;;;;5090597;28;19931;-72
2020/12/30 11:08:35;;;;;;;;;;;8.00;74.00;;;;;;5090579;28;19924;-72
2020/12/30 11:11:02;;;;;;;;;;;8.20;73.50;;;;;;5090447;28;20445;-72
2020/12/30 11:13:28;;;;;;;;;;;8.30;73.60;;;;;;5090625;28;19973;-71
2020/12/30 11:15:55;;;;;;;;;;;8.30;72.00;;;;;;5090428;28;19928;-71
2020/12/30 11:18:21;;;;;;;;;;;8.40;72.00;;;;;;5090344;28;20006;-72
2020/12/30 11:20:48;;;;;;;;;;;8.50;71.30;;;;;;5090427;28;20297;-71
2020/12/30 11:23:15;;;;;;;;;;;8.50;73.30;;;;;;5090308;28;19931;-71
2020/12/30 11:25:41;;;;;;;;;;;8.30;72.80;;;;;;5090429;28;19931;-71
2020/12/30 11:28:08;;;;;;;;;;;8.50;73.10;;;;;;5111001;28;19924;-70
2020/12/30 11:30:34;;;;;;;;;;;8.50;72.50;;;;;;5110562;28;19924;-71
2020/12/30 11:33:01;;;;;;;;;;;8.60;72.50;;;;;;5099266;28;19935;-72
2020/12/30 11:35:27;;;;;;;;;;;8.80;70.50;;;;;;5090350;28;19924;-69
2020/12/30 11:37:53;;;;;;;;;;;8.60;71.40;;;;;;5100503;28;20296;-72
2020/12/30 11:40:20;;;;;;;;;;;8.50;72.90;;;;;;5110450;28;19930;-71
2020/12/30 11:42:47;;;;;;;;;;;8.50;72.90;;;;;;5091859;28;19925;-72
2020/12/30 11:45:13;;;;;;;;;;;8.70;72.00;;;;;;5090093;28;19928;-71
2020/12/30 11:47:40;;;;;;;;;;;8.60;72.00;;;;;;5089937;28;19928;-71
2020/12/30 11:50:06;;;;;;;;;;;8.80;70.80;;;;;;5089852;28;20407;-68
2020/12/30 11:52:32;;;;;;;;;;;8.80;70.60;;;;;;5089323;28;20445;-72
2020/12/30 11:54:58;;;;;;;;;;;8.80;70.30;;;;;;5089860;28;20296;-70
2020/12/30 11:57:27;;;;;;;;;;;8.80;71.90;;;;;;5089978;28;19924;-71
2020/12/30 11:59:54;;;;;;;;;;;8.90;71.60;;;;;;5089948;28;19924;-70
2020/12/30 12:02:20;;;;;;;;;;;9.00;70.30;;;;;;5089711;28;20384;-70
2020/12/30 12:04:46;;;;;;;;;;;9.30;70.80;;;;;;5089846;28;20277;-67
2020/12/30 12:07:13;;;;;;;;;;;9.20;69.90;;;;;;5089855;28;19932;-68
2020/12/30 12:09:39;;;;;;;;;;;9.20;70.00;;;;;;5089976;28;19947;-71
2020/12/30 12:12:05;;;;;;;;;;;8.90;70.60;;;;;;5089823;28;20155;-72
2020/12/30 12:14:32;;;;;;;;;;;8.90;71.70;;;;;;5089539;28;20477;-72
2020/12/30 12:16:58;;;;;;;;;;;9.20;70.20;;;;;;5089970;28;19932;-71
2020/12/30 12:19:25;;;;;;;;;;;9.00;70.20;;;;;;5089610;28;19924;-68
2020/12/30 12:21:51;;;;;;;;;;;9.20;70.60;;;;;;5090017;28;20214;-71
2020/12/30 12:24:18;;;;;;;;;;;9.00;70.60;;;;;;5089706;28;19924;-69
2020/12/30 12:26:44;;;;;;;;;;;8.90;70.50;;;;;;5098221;28;19936;-71
2020/12/30 12:29:18;;;;;;;;;;;8.80;69.90;;;;;;5109876;28;19931;-72
2020/12/30 12:31:44;;;;;;;;;;;9.00;70.80;;;;;;5109592;28;20231;-70
2020/12/30 12:34:10;;;;;;;;;;;8.90;69.80;;;;;;5089532;28;19931;-71
2020/12/30 12:36:37;;;;;;;;;;;9.00;71.00;;;;;;5089502;28;19924;-72
2020/12/30 12:39:03;;;;;;;;;;;9.20;70.90;;;;;;5109576;28;19945;-71
2020/12/30 12:41:29;;;;;;;;;;;9.30;69.20;;;;;;5102403;28;19987;-72
2020/12/30 12:43:56;;;;;;;;;;;9.30;68.90;;;;;;5089487;28;19924;-70
2020/12/30 12:46:22;;;;;;;;;;;9.40;70.00;;;;;;5089564;28;19924;-71
2020/12/30 12:48:48;;;;;;;;;;;9.50;69.50;;;;;;5089072;28;19928;-72
2020/12/30 12:51:15;;;;;;;;;;;9.40;68.00;;;;;;5088848;28;19924;-69
2020/12/30 12:53:41;;;;;;;;;;;9.70;68.10;;;;;;5089231;28;19947;-71
2020/12/30 12:56:14;;;;;;;;;;;9.70;67.90;;;;;;5089248;28;20281;-71
2020/12/30 12:58:40;;;;;;;;;;;9.70;67.50;;;;;;5089487;28;20426;-71
2020/12/30 13:01:07;;;;;;;;;;;9.60;67.10;;;;;;5088942;28;19924;-71
2020/12/30 13:03:33;;;;;;;;;;;9.70;67.00;;;;;;5090044;28;19928;-71
2020/12/30 13:05:59;;;;;;;;;;;9.80;67.00;;;;;;5093028;28;19969;-71
2020/12/30 13:08:25;;;;;;;;;;;10.00;65.80;;;;;;5092885;28;20317;-71
2020/12/30 13:10:52;;;;;;;;;;;10.00;66.80;;;;;;5092674;28;20376;-72
2020/12/30 13:13:19;;;;;;;;;;;10.30;66.00;;;;;;5092496;28;19975;-70
2020/12/30 13:15:45;;;;;;;;;;;10.40;64.50;;;;;;5078223;28;20168;-71
2020/12/30 13:18:11;;;;;;;;;;;10.20;63.70;;;;;;5113079;28;19923;-71
2020/12/30 13:20:39;;;;;;;;;;;10.20;64.60;;;;;;5113168;28;20190;-66
2020/12/30 13:23:05;;;;;;;;;;;10.20;65.60;;;;;;5112806;28;19935;-69
2020/12/30 13:25:32;;;;;;;;;;;10.20;65.10;;;;;;5112659;28;19928;-70
2020/12/30 13:27:58;;;;;;;;;;;9.90;64.50;;;;;;5093565;28;19998;-68
2020/12/30 13:30:24;;;;;;;;;;;9.70;66.00;;;;;;5092322;28;19932;-68
2020/12/30 13:32:50;;;;;;;;;;;9.50;67.60;;;;;;5096487;28;19932;-71
2020/12/30 13:35:34;;;;;;;;;;;9.60;67.60;;;;;;5092625;28;20407;-69
2020/12/30 13:38:00;;;;;;;;;;;9.60;67.50;;;;;;5103183;28;20337;-70
2020/12/30 13:40:27;;;;;;;;;;;9.30;66.90;;;;;;5112741;28;19946;-72
2020/12/30 13:42:53;;;;;;;;;;;9.40;69.10;;;;;;5093107;28;20351;-73
2020/12/30 13:45:19;;;;;;;;;;;9.30;67.50;;;;;;5092177;28;20020;-70
2020/12/30 13:47:46;;;;;;;;;;;9.20;68.70;;;;;;5091989;28;19924;-70
2020/12/30 13:50:12;;;;;;;;;;;9.30;68.90;;;;;;5092247;28;19924;-70
2020/12/30 13:52:38;;;;;;;;;;;9.10;68.60;;;;;;5091669;28;19924;-70
2020/12/30 13:55:05;;;;;;;;;;;9.10;69.00;;;;;;5091874;28;20315;-70
2020/12/30 13:57:32;;;;;;;;;;;9.00;69.60;;;;;;5092065;28;20374;-70
2020/12/30 13:59:58;;;;;;;;;;;9.00;70.10;;;;;;5091949;28;19931;-70
2020/12/30 14:02:24;;;;;;;;;;;9.00;69.70;;;;;;5091926;28;20101;-70
2020/12/30 14:04:51;;;;;;;;;;;9.10;69.50;;;;;;5091718;28;20431;-70
2020/12/30 14:07:17;;;;;;;;;;;9.10;69.70;;;;;;5091977;28;20356;-72
2020/12/30 14:09:43;;;;;;;;;;;9.10;68.40;;;;;;5091620;28;20171;-67
2020/12/30 14:12:10;;;;;;;;;;;9.20;68.60;;;;;;5091536;28;19969;-72
2020/12/30 14:14:36;;;;;;;;;;;9.20;68.60;;;;;;5091577;28;19928;-71
2020/12/30 14:17:03;;;;;;;;;;;9.20;69.70;;;;;;5106229;28;19931;-72
2020/12/30 14:19:29;;;;;;;;;;;9.20;69.20;;;;;;5112224;28;20030;-69
2020/12/30 14:21:56;;;;;;;;;;;9.20;69.00;;;;;;5111822;28;19939;-70
2020/12/30 14:24:23;;;;;;;;;;;9.20;68.70;;;;;;5112067;28;19939;-64
2020/12/30 14:26:50;;;;;;;;;;;9.20;69.10;;;;;;5101764;28;19935;-70
2020/12/30 14:29:16;;;;;;;;;;;9.30;67.80;;;;;;5091503;28;19927;-70